Terminal Aerodrome Forecast
Issued by NWS

Home | Current Version | Previous Version | Text Only | Print | Product List | Glossary On
Versions: 1 2 3 4 5 6 7 8 9 10 11 12 13 14 15 16 17 18 19 20 21 22 23 24 25 26 27 28 29 30 31
240
FTUS41 KOKX 230632 AAA
TAFGON
TAF AMD
KGON 230632Z 2307/2406 VRB02KT 3SM BR SCT005 SCT040 BKN250
      TEMPO 2307/2311 BKN001
     FM231400 15007KT P6SM SCT006 BKN040
     FM231800 15010KT P6SM SCT006 BKN035
     FM240000 15012KT 6SM -DZ BR SCT008 BKN025=

USA.gov is the U.S. government's official web portal to all federal, state and local government web resources and services.